sensor_id;sensor_type;location;lat;lon;timestamp;P1;durP1;ratioP1;P2;durP2;ratioP2
31808;SDS011;18379;48.208;-1.518;2022-11-23T00:05:34;45.60;;;41.60;;
31808;SDS011;18379;48.208;-1.518;2022-11-23T00:10:35;41.37;;;37.90;;
31808;SDS011;18379;48.208;-1.518;2022-11-23T00:15:35;41.03;;;37.20;;
31808;SDS011;18379;48.208;-1.518;2022-11-23T00:20:39;38.93;;;35.90;;
31808;SDS011;18379;48.208;-1.518;2022-11-23T00:25:42;38.33;;;35.13;;
31808;SDS011;18379;48.208;-1.518;2022-11-23T00:30:48;37.30;;;34.17;;
31808;SDS011;18379;48.208;-1.518;2022-11-23T00:36:03;37.20;;;34.40;;
31808;SDS011;18379;48.208;-1.518;2022-11-23T00:41:06;40.17;;;36.80;;
31808;SDS011;18379;48.208;-1.518;2022-11-23T00:46:13;39.53;;;36.30;;
31808;SDS011;18379;48.208;-1.518;2022-11-23T00:51:16;38.07;;;35.07;;
31808;SDS011;18379;48.208;-1.518;2022-11-23T00:56:19;38.93;;;35.30;;
31808;SDS011;18379;48.208;-1.518;2022-11-23T01:01:22;37.97;;;34.97;;
31808;SDS011;18379;48.208;-1.518;2022-11-23T01:06:25;41.33;;;37.63;;
31808;SDS011;18379;48.208;-1.518;2022-11-23T01:11:28;40.83;;;37.80;;
31808;SDS011;18379;48.208;-1.518;2022-11-23T01:16:31;45.10;;;41.13;;
31808;SDS011;18379;48.208;-1.518;2022-11-23T01:21:34;42.40;;;38.53;;
31808;SDS011;18379;48.208;-1.518;2022-11-23T01:26:35;40.57;;;37.47;;
31808;SDS011;18379;48.208;-1.518;2022-11-23T01:31:36;41.43;;;38.07;;
31808;SDS011;18379;48.208;-1.518;2022-11-23T01:36:37;46.60;;;42.77;;
31808;SDS011;18379;48.208;-1.518;2022-11-23T01:41:38;40.83;;;37.73;;
31808;SDS011;18379;48.208;-1.518;2022-11-23T01:46:40;37.90;;;35.27;;
31808;SDS011;18379;48.208;-1.518;2022-11-23T01:51:42;38.07;;;35.23;;
31808;SDS011;18379;48.208;-1.518;2022-11-23T01:56:46;38.03;;;35.60;;
31808;SDS011;18379;48.208;-1.518;2022-11-23T02:01:52;40.33;;;37.10;;
31808;SDS011;18379;48.208;-1.518;2022-11-23T02:06:53;40.50;;;37.73;;
31808;SDS011;18379;48.208;-1.518;2022-11-23T02:11:55;42.53;;;38.90;;
31808;SDS011;18379;48.208;-1.518;2022-11-23T02:16:57;41.13;;;38.03;;
31808;SDS011;18379;48.208;-1.518;2022-11-23T02:21:58;40.77;;;37.60;;
31808;SDS011;18379;48.208;-1.518;2022-11-23T02:26:59;43.67;;;40.33;;
31808;SDS011;18379;48.208;-1.518;2022-11-23T02:32:01;41.13;;;37.83;;
31808;SDS011;18379;48.208;-1.518;2022-11-23T02:37:02;45.70;;;42.33;;
31808;SDS011;18379;48.208;-1.518;2022-11-23T02:42:03;39.93;;;37.17;;
31808;SDS011;18379;48.208;-1.518;2022-11-23T02:47:05;47.10;;;43.73;;
31808;SDS011;18379;48.208;-1.518;2022-11-23T02:52:07;39.23;;;36.73;;
31808;SDS011;18379;48.208;-1.518;2022-11-23T02:57:08;39.10;;;36.47;;
31808;SDS011;18379;48.208;-1.518;2022-11-23T03:02:09;43.37;;;40.57;;
31808;SDS011;18379;48.208;-1.518;2022-11-23T03:07:10;42.07;;;39.40;;
31808;SDS011;18379;48.208;-1.518;2022-11-23T03:12:11;36.47;;;34.50;;
31808;SDS011;18379;48.208;-1.518;2022-11-23T03:17:12;41.17;;;38.77;;
31808;SDS011;18379;48.208;-1.518;2022-11-23T03:22:12;36.53;;;34.63;;
31808;SDS011;18379;48.208;-1.518;2022-11-23T03:27:13;36.23;;;34.33;;
31808;SDS011;18379;48.208;-1.518;2022-11-23T03:32:14;37.13;;;34.97;;
31808;SDS011;18379;48.208;-1.518;2022-11-23T03:37:15;37.03;;;34.73;;
31808;SDS011;18379;48.208;-1.518;2022-11-23T03:42:16;37.10;;;35.00;;
31808;SDS011;18379;48.208;-1.518;2022-11-23T03:47:18;37.27;;;35.17;;
31808;SDS011;18379;48.208;-1.518;2022-11-23T03:52:19;36.83;;;34.73;;
31808;SDS011;18379;48.208;-1.518;2022-11-23T03:57:19;37.17;;;35.17;;
31808;SDS011;18379;48.208;-1.518;2022-11-23T04:02:20;37.37;;;35.30;;
31808;SDS011;18379;48.208;-1.518;2022-11-23T04:07:21;37.80;;;35.70;;
31808;SDS011;18379;48.208;-1.518;2022-11-23T04:12:22;38.50;;;36.10;;
31808;SDS011;18379;48.208;-1.518;2022-11-23T04:17:23;39.37;;;36.83;;
31808;SDS011;18379;48.208;-1.518;2022-11-23T04:22:24;41.17;;;38.40;;
31808;SDS011;18379;48.208;-1.518;2022-11-23T04:27:25;40.13;;;37.63;;
31808;SDS011;18379;48.208;-1.518;2022-11-23T04:32:26;45.83;;;42.67;;
31808;SDS011;18379;48.208;-1.518;2022-11-23T04:37:26;39.40;;;37.00;;
31808;SDS011;18379;48.208;-1.518;2022-11-23T04:42:27;40.07;;;37.50;;
31808;SDS011;18379;48.208;-1.518;2022-11-23T04:47:28;40.83;;;38.20;;
31808;SDS011;18379;48.208;-1.518;2022-11-23T04:52:29;39.73;;;37.33;;
31808;SDS011;18379;48.208;-1.518;2022-11-23T04:57:30;39.67;;;37.20;;
31808;SDS011;18379;48.208;-1.518;2022-11-23T05:02:30;39.13;;;36.83;;
31808;SDS011;18379;48.208;-1.518;2022-11-23T05:07:31;39.27;;;36.93;;
31808;SDS011;18379;48.208;-1.518;2022-11-23T05:12:32;40.53;;;38.03;;
31808;SDS011;18379;48.208;-1.518;2022-11-23T05:17:32;39.07;;;36.77;;
31808;SDS011;18379;48.208;-1.518;2022-11-23T05:22:33;39.23;;;36.83;;
31808;SDS011;18379;48.208;-1.518;2022-11-23T05:27:34;39.63;;;37.30;;
31808;SDS011;18379;48.208;-1.518;2022-11-23T05:32:35;39.20;;;36.77;;
31808;SDS011;18379;48.208;-1.518;2022-11-23T05:37:36;40.87;;;38.20;;
31808;SDS011;18379;48.208;-1.518;2022-11-23T05:42:37;40.00;;;37.50;;
31808;SDS011;18379;48.208;-1.518;2022-11-23T05:47:38;40.97;;;38.33;;
31808;SDS011;18379;48.208;-1.518;2022-11-23T05:52:39;37.57;;;35.47;;
31808;SDS011;18379;48.208;-1.518;2022-11-23T05:57:40;43.97;;;41.30;;
31808;SDS011;18379;48.208;-1.518;2022-11-23T06:02:41;38.53;;;36.13;;
31808;SDS011;18379;48.208;-1.518;2022-11-23T06:07:42;37.87;;;35.57;;
31808;SDS011;18379;48.208;-1.518;2022-11-23T06:12:43;46.73;;;43.93;;
31808;SDS011;18379;48.208;-1.518;2022-11-23T06:17:45;39.80;;;37.23;;
31808;SDS011;18379;48.208;-1.518;2022-11-23T06:22:50;38.80;;;36.50;;
31808;SDS011;18379;48.208;-1.518;2022-11-23T06:27:56;40.10;;;37.67;;
31808;SDS011;18379;48.208;-1.518;2022-11-23T06:33:01;41.90;;;39.13;;
31808;SDS011;18379;48.208;-1.518;2022-11-23T06:38:04;44.17;;;41.00;;
31808;SDS011;18379;48.208;-1.518;2022-11-23T06:43:05;42.53;;;39.43;;
31808;SDS011;18379;48.208;-1.518;2022-11-23T06:48:07;42.63;;;39.50;;
31808;SDS011;18379;48.208;-1.518;2022-11-23T06:53:08;42.60;;;39.53;;
31808;SDS011;18379;48.208;-1.518;2022-11-23T06:58:11;40.03;;;37.13;;
31808;SDS011;18379;48.208;-1.518;2022-11-23T07:03:19;39.37;;;36.73;;
31808;SDS011;18379;48.208;-1.518;2022-11-23T07:08:22;40.80;;;37.70;;
31808;SDS011;18379;48.208;-1.518;2022-11-23T07:13:23;41.30;;;38.37;;
31808;SDS011;18379;48.208;-1.518;2022-11-23T07:18:24;41.67;;;38.80;;
31808;SDS011;18379;48.208;-1.518;2022-11-23T07:23:25;42.40;;;39.27;;
31808;SDS011;18379;48.208;-1.518;2022-11-23T07:28:26;42.83;;;39.60;;
31808;SDS011;18379;48.208;-1.518;2022-11-23T07:33:26;44.93;;;41.00;;
31808;SDS011;18379;48.208;-1.518;2022-11-23T07:38:28;44.83;;;41.20;;
31808;SDS011;18379;48.208;-1.518;2022-11-23T07:43:30;41.77;;;38.50;;
31808;SDS011;18379;48.208;-1.518;2022-11-23T07:48:33;43.77;;;40.03;;
31808;SDS011;18379;48.208;-1.518;2022-11-23T07:53:34;42.20;;;39.17;;
31808;SDS011;18379;48.208;-1.518;2022-11-23T07:58:35;41.47;;;38.53;;
31808;SDS011;18379;48.208;-1.518;2022-11-23T08:03:36;43.23;;;40.00;;
31808;SDS011;18379;48.208;-1.518;2022-11-23T08:08:37;42.13;;;38.77;;
31808;SDS011;18379;48.208;-1.518;2022-11-23T08:13:39;42.83;;;39.03;;
31808;SDS011;18379;48.208;-1.518;2022-11-23T08:18:40;42.23;;;38.73;;
31808;SDS011;18379;48.208;-1.518;2022-11-23T08:23:40;42.30;;;38.83;;
31808;SDS011;18379;48.208;-1.518;2022-11-23T08:28:41;42.40;;;39.00;;
31808;SDS011;18379;48.208;-1.518;2022-11-23T08:33:42;42.23;;;39.23;;
31808;SDS011;18379;48.208;-1.518;2022-11-23T08:38:43;41.67;;;38.70;;
31808;SDS011;18379;48.208;-1.518;2022-11-23T08:43:43;42.33;;;39.20;;
31808;SDS011;18379;48.208;-1.518;2022-11-23T08:48:48;42.77;;;39.20;;
31808;SDS011;18379;48.208;-1.518;2022-11-23T08:53:49;43.70;;;39.90;;
31808;SDS011;18379;48.208;-1.518;2022-11-23T08:58:50;41.73;;;37.97;;
31808;SDS011;18379;48.208;-1.518;2022-11-23T09:03:51;39.73;;;37.03;;
31808;SDS011;18379;48.208;-1.518;2022-11-23T09:08:54;40.73;;;37.23;;
31808;SDS011;18379;48.208;-1.518;2022-11-23T09:13:54;40.67;;;37.63;;
31808;SDS011;18379;48.208;-1.518;2022-11-23T09:18:55;42.17;;;38.77;;
31808;SDS011;18379;48.208;-1.518;2022-11-23T09:23:57;41.90;;;38.77;;
31808;SDS011;18379;48.208;-1.518;2022-11-23T09:28:58;41.27;;;38.10;;
31808;SDS011;18379;48.208;-1.518;2022-11-23T09:33:59;42.40;;;38.77;;
31808;SDS011;18379;48.208;-1.518;2022-11-23T09:39:00;41.83;;;38.97;;
31808;SDS011;18379;48.208;-1.518;2022-11-23T09:44:05;42.27;;;38.80;;
31808;SDS011;18379;48.208;-1.518;2022-11-23T09:49:19;45.30;;;41.70;;
31808;SDS011;18379;48.208;-1.518;2022-11-23T10:04:35;45.73;;;42.10;;
31808;SDS011;18379;48.208;-1.518;2022-11-23T10:09:39;46.97;;;42.90;;
31808;SDS011;18379;48.208;-1.518;2022-11-23T10:20:22;46.23;;;41.73;;
31808;SDS011;18379;48.208;-1.518;2022-11-23T10:25:54;44.23;;;39.80;;
31808;SDS011;18379;48.208;-1.518;2022-11-23T10:30:58;44.50;;;40.57;;
31808;SDS011;18379;48.208;-1.518;2022-11-23T10:36:00;42.43;;;39.20;;
31808;SDS011;18379;48.208;-1.518;2022-11-23T10:41:03;44.23;;;40.23;;
31808;SDS011;18379;48.208;-1.518;2022-11-23T10:46:23;46.83;;;42.37;;
31808;SDS011;18379;48.208;-1.518;2022-11-23T10:51:31;44.90;;;40.47;;
31808;SDS011;18379;48.208;-1.518;2022-11-23T10:56:33;45.53;;;40.73;;
31808;SDS011;18379;48.208;-1.518;2022-11-23T11:01:34;45.93;;;41.57;;
31808;SDS011;18379;48.208;-1.518;2022-11-23T11:06:34;47.07;;;42.63;;
31808;SDS011;18379;48.208;-1.518;2022-11-23T11:11:36;47.47;;;43.00;;
31808;SDS011;18379;48.208;-1.518;2022-11-23T11:16:45;46.93;;;42.70;;
31808;SDS011;18379;48.208;-1.518;2022-11-23T11:22:00;45.57;;;41.03;;
31808;SDS011;18379;48.208;-1.518;2022-11-23T11:27:21;45.70;;;41.23;;
31808;SDS011;18379;48.208;-1.518;2022-11-23T11:37:43;47.93;;;43.00;;
31808;SDS011;18379;48.208;-1.518;2022-11-23T11:48:18;51.73;;;46.80;;
31808;SDS011;18379;48.208;-1.518;2022-11-23T11:53:32;51.10;;;46.57;;
31808;SDS011;18379;48.208;-1.518;2022-11-23T11:58:41;53.67;;;47.80;;
31808;SDS011;18379;48.208;-1.518;2022-11-23T12:03:55;47.23;;;43.10;;
31808;SDS011;18379;48.208;-1.518;2022-11-23T12:09:11;48.67;;;43.77;;
31808;SDS011;18379;48.208;-1.518;2022-11-23T12:14:14;47.47;;;43.20;;
31808;SDS011;18379;48.208;-1.518;2022-11-23T12:19:29;47.13;;;42.93;;
31808;SDS011;18379;48.208;-1.518;2022-11-23T12:24:39;44.40;;;40.53;;
31808;SDS011;18379;48.208;-1.518;2022-11-23T12:46:58;44.30;;;40.63;;
31808;SDS011;18379;48.208;-1.518;2022-11-23T12:51:33;44.50;;;40.83;;
31808;SDS011;18379;48.208;-1.518;2022-11-23T12:56:51;49.00;;;43.97;;
31808;SDS011;18379;48.208;-1.518;2022-11-23T13:02:00;44.10;;;40.37;;
31808;SDS011;18379;48.208;-1.518;2022-11-23T13:12:16;50.43;;;46.40;;
31808;SDS011;18379;48.208;-1.518;2022-11-23T13:22:45;45.97;;;42.10;;
31808;SDS011;18379;48.208;-1.518;2022-11-23T13:32:53;46.67;;;42.60;;
31808;SDS011;18379;48.208;-1.518;2022-11-23T13:42:56;45.13;;;41.30;;
31808;SDS011;18379;48.208;-1.518;2022-11-23T13:58:35;44.47;;;41.07;;
31808;SDS011;18379;48.208;-1.518;2022-11-23T14:09:33;47.47;;;43.30;;
31808;SDS011;18379;48.208;-1.518;2022-11-23T14:14:19;46.03;;;42.00;;
31808;SDS011;18379;48.208;-1.518;2022-11-23T14:31:14;43.47;;;39.90;;
31808;SDS011;18379;48.208;-1.518;2022-11-23T14:36:22;45.00;;;40.57;;
31808;SDS011;18379;48.208;-1.518;2022-11-23T14:41:36;46.77;;;42.67;;
31808;SDS011;18379;48.208;-1.518;2022-11-23T14:47:00;47.07;;;42.70;;
31808;SDS011;18379;48.208;-1.518;2022-11-23T14:52:05;45.40;;;41.10;;
31808;SDS011;18379;48.208;-1.518;2022-11-23T14:57:05;46.60;;;42.07;;
31808;SDS011;18379;48.208;-1.518;2022-11-23T15:07:24;44.10;;;39.97;;
31808;SDS011;18379;48.208;-1.518;2022-11-23T15:12:40;43.63;;;39.97;;
31808;SDS011;18379;48.208;-1.518;2022-11-23T15:18:01;43.37;;;39.37;;
31808;SDS011;18379;48.208;-1.518;2022-11-23T15:23:02;44.60;;;40.40;;
31808;SDS011;18379;48.208;-1.518;2022-11-23T15:28:10;45.03;;;40.80;;
31808;SDS011;18379;48.208;-1.518;2022-11-23T15:33:17;46.90;;;42.37;;
31808;SDS011;18379;48.208;-1.518;2022-11-23T15:38:19;48.40;;;43.37;;
31808;SDS011;18379;48.208;-1.518;2022-11-23T15:43:20;45.83;;;41.73;;
31808;SDS011;18379;48.208;-1.518;2022-11-23T15:48:31;46.97;;;42.67;;
31808;SDS011;18379;48.208;-1.518;2022-11-23T15:53:47;46.57;;;42.03;;
31808;SDS011;18379;48.208;-1.518;2022-11-23T15:58:50;46.03;;;41.80;;
31808;SDS011;18379;48.208;-1.518;2022-11-23T16:03:53;44.83;;;40.43;;
31808;SDS011;18379;48.208;-1.518;2022-11-23T16:09:00;47.40;;;42.43;;
31808;SDS011;18379;48.208;-1.518;2022-11-23T16:14:26;46.47;;;41.77;;
31808;SDS011;18379;48.208;-1.518;2022-11-23T16:19:28;46.13;;;41.23;;
31808;SDS011;18379;48.208;-1.518;2022-11-23T16:24:32;51.87;;;41.87;;
31808;SDS011;18379;48.208;-1.518;2022-11-23T16:29:35;50.40;;;43.50;;
31808;SDS011;18379;48.208;-1.518;2022-11-23T16:34:36;50.77;;;42.63;;
31808;SDS011;18379;48.208;-1.518;2022-11-23T16:39:37;47.53;;;42.50;;
31808;SDS011;18379;48.208;-1.518;2022-11-23T16:44:38;51.90;;;43.63;;
31808;SDS011;18379;48.208;-1.518;2022-11-23T16:49:39;47.83;;;42.87;;
31808;SDS011;18379;48.208;-1.518;2022-11-23T16:54:40;45.60;;;41.50;;
31808;SDS011;18379;48.208;-1.518;2022-11-23T16:59:40;45.97;;;41.67;;
31808;SDS011;18379;48.208;-1.518;2022-11-23T17:04:42;46.00;;;41.73;;
31808;SDS011;18379;48.208;-1.518;2022-11-23T17:09:43;45.63;;;41.37;;
31808;SDS011;18379;48.208;-1.518;2022-11-23T17:14:44;46.87;;;41.80;;
31808;SDS011;18379;48.208;-1.518;2022-11-23T17:19:48;47.50;;;42.73;;
31808;SDS011;18379;48.208;-1.518;2022-11-23T17:24:49;46.03;;;41.73;;
31808;SDS011;18379;48.208;-1.518;2022-11-23T17:29:57;44.70;;;40.23;;
31808;SDS011;18379;48.208;-1.518;2022-11-23T17:35:00;44.73;;;39.90;;
31808;SDS011;18379;48.208;-1.518;2022-11-23T17:40:01;44.77;;;40.30;;
31808;SDS011;18379;48.208;-1.518;2022-11-23T17:45:03;45.07;;;40.40;;
31808;SDS011;18379;48.208;-1.518;2022-11-23T17:50:04;45.13;;;40.37;;
31808;SDS011;18379;48.208;-1.518;2022-11-23T17:55:08;56.97;;;47.93;;
31808;SDS011;18379;48.208;-1.518;2022-11-23T18:00:21;54.27;;;48.63;;
31808;SDS011;18379;48.208;-1.518;2022-11-23T18:05:22;45.27;;;40.63;;
31808;SDS011;18379;48.208;-1.518;2022-11-23T18:10:23;45.10;;;40.37;;
31808;SDS011;18379;48.208;-1.518;2022-11-23T18:15:24;45.63;;;41.03;;
31808;SDS011;18379;48.208;-1.518;2022-11-23T18:20:25;44.03;;;39.87;;
31808;SDS011;18379;48.208;-1.518;2022-11-23T18:25:26;45.53;;;40.27;;
31808;SDS011;18379;48.208;-1.518;2022-11-23T18:30:29;46.73;;;42.00;;
31808;SDS011;18379;48.208;-1.518;2022-11-23T18:35:30;46.07;;;41.10;;
31808;SDS011;18379;48.208;-1.518;2022-11-23T18:40:31;45.50;;;40.23;;
31808;SDS011;18379;48.208;-1.518;2022-11-23T18:45:31;44.70;;;39.90;;
31808;SDS011;18379;48.208;-1.518;2022-11-23T18:50:32;45.97;;;41.03;;
31808;SDS011;18379;48.208;-1.518;2022-11-23T18:55:34;44.63;;;39.90;;
31808;SDS011;18379;48.208;-1.518;2022-11-23T19:00:34;47.93;;;40.93;;
31808;SDS011;18379;48.208;-1.518;2022-11-23T19:05:35;47.30;;;42.10;;
31808;SDS011;18379;48.208;-1.518;2022-11-23T19:10:36;48.83;;;42.90;;
31808;SDS011;18379;48.208;-1.518;2022-11-23T19:15:38;49.80;;;44.03;;
31808;SDS011;18379;48.208;-1.518;2022-11-23T19:20:38;50.60;;;42.30;;
31808;SDS011;18379;48.208;-1.518;2022-11-23T19:25:39;50.80;;;42.27;;
31808;SDS011;18379;48.208;-1.518;2022-11-23T19:30:40;52.50;;;41.87;;
31808;SDS011;18379;48.208;-1.518;2022-11-23T19:35:41;47.50;;;42.50;;
31808;SDS011;18379;48.208;-1.518;2022-11-23T19:40:42;45.93;;;41.13;;
31808;SDS011;18379;48.208;-1.518;2022-11-23T19:45:43;47.70;;;42.80;;
31808;SDS011;18379;48.208;-1.518;2022-11-23T19:50:52;45.43;;;41.07;;
31808;SDS011;18379;48.208;-1.518;2022-11-23T19:56:03;46.23;;;41.40;;
31808;SDS011;18379;48.208;-1.518;2022-11-23T20:01:07;43.33;;;39.70;;
31808;SDS011;18379;48.208;-1.518;2022-11-23T20:06:16;46.10;;;41.93;;
31808;SDS011;18379;48.208;-1.518;2022-11-23T20:11:18;43.33;;;39.77;;
31808;SDS011;18379;48.208;-1.518;2022-11-23T20:16:19;42.73;;;39.27;;
31808;SDS011;18379;48.208;-1.518;2022-11-23T20:21:21;43.13;;;39.60;;
31808;SDS011;18379;48.208;-1.518;2022-11-23T20:26:22;41.37;;;38.37;;
31808;SDS011;18379;48.208;-1.518;2022-11-23T20:31:25;40.43;;;37.00;;
31808;SDS011;18379;48.208;-1.518;2022-11-23T20:36:30;40.13;;;36.97;;
31808;SDS011;18379;48.208;-1.518;2022-11-23T20:41:34;38.73;;;35.90;;
31808;SDS011;18379;48.208;-1.518;2022-11-23T20:46:36;41.73;;;38.10;;
31808;SDS011;18379;48.208;-1.518;2022-11-23T20:51:37;41.63;;;38.33;;
31808;SDS011;18379;48.208;-1.518;2022-11-23T20:56:39;41.17;;;37.73;;
31808;SDS011;18379;48.208;-1.518;2022-11-23T21:01:40;41.37;;;38.20;;
31808;SDS011;18379;48.208;-1.518;2022-11-23T21:06:40;42.60;;;38.83;;
31808;SDS011;18379;48.208;-1.518;2022-11-23T21:11:41;43.40;;;39.47;;
31808;SDS011;18379;48.208;-1.518;2022-11-23T21:17:00;40.37;;;37.03;;
31808;SDS011;18379;48.208;-1.518;2022-11-23T21:22:03;40.77;;;37.07;;
31808;SDS011;18379;48.208;-1.518;2022-11-23T21:27:11;42.43;;;38.90;;
31808;SDS011;18379;48.208;-1.518;2022-11-23T21:32:12;52.40;;;47.60;;
31808;SDS011;18379;48.208;-1.518;2022-11-23T21:37:13;42.10;;;38.60;;
31808;SDS011;18379;48.208;-1.518;2022-11-23T21:42:14;44.00;;;40.13;;
31808;SDS011;18379;48.208;-1.518;2022-11-23T21:47:16;42.60;;;38.83;;
31808;SDS011;18379;48.208;-1.518;2022-11-23T21:52:16;41.77;;;38.33;;
31808;SDS011;18379;48.208;-1.518;2022-11-23T21:57:17;42.67;;;38.93;;
31808;SDS011;18379;48.208;-1.518;2022-11-23T22:02:18;47.07;;;43.20;;
31808;SDS011;18379;48.208;-1.518;2022-11-23T22:07:19;41.17;;;37.70;;
31808;SDS011;18379;48.208;-1.518;2022-11-23T22:12:20;39.70;;;36.70;;
31808;SDS011;18379;48.208;-1.518;2022-11-23T22:17:20;41.70;;;38.33;;
31808;SDS011;18379;48.208;-1.518;2022-11-23T22:22:21;46.17;;;42.33;;
31808;SDS011;18379;48.208;-1.518;2022-11-23T22:27:22;41.00;;;37.87;;
31808;SDS011;18379;48.208;-1.518;2022-11-23T22:32:23;38.07;;;35.13;;
31808;SDS011;18379;48.208;-1.518;2022-11-23T22:37:23;38.17;;;35.57;;
31808;SDS011;18379;48.208;-1.518;2022-11-23T22:42:24;37.30;;;34.80;;
31808;SDS011;18379;48.208;-1.518;2022-11-23T22:47:25;38.00;;;35.07;;
31808;SDS011;18379;48.208;-1.518;2022-11-23T22:52:26;42.37;;;39.33;;
31808;SDS011;18379;48.208;-1.518;2022-11-23T22:57:26;37.27;;;34.77;;
31808;SDS011;18379;48.208;-1.518;2022-11-23T23:02:27;37.97;;;35.03;;
31808;SDS011;18379;48.208;-1.518;2022-11-23T23:07:29;37.67;;;34.97;;
31808;SDS011;18379;48.208;-1.518;2022-11-23T23:12:30;37.90;;;35.10;;
31808;SDS011;18379;48.208;-1.518;2022-11-23T23:17:31;37.30;;;34.70;;
31808;SDS011;18379;48.208;-1.518;2022-11-23T23:22:32;36.73;;;34.40;;
31808;SDS011;18379;48.208;-1.518;2022-11-23T23:27:33;37.23;;;34.57;;
31808;SDS011;18379;48.208;-1.518;2022-11-23T23:32:34;38.43;;;35.57;;
31808;SDS011;18379;48.208;-1.518;2022-11-23T23:37:35;38.80;;;35.40;;
31808;SDS011;18379;48.208;-1.518;2022-11-23T23:42:36;40.50;;;37.50;;
31808;SDS011;18379;48.208;-1.518;2022-11-23T23:47:36;39.10;;;36.20;;
31808;SDS011;18379;48.208;-1.518;2022-11-23T23:52:37;40.73;;;37.27;;
31808;SDS011;18379;48.208;-1.518;2022-11-23T23:57:38;40.43;;;37.37;;
